Time;durP1;ratioP1;P1;durP2;ratioP2;P2;SDS_P1;SDS_P2;PMS_P1;PMS_P2;Temp;Humidity;BMP_temperature;BMP_pressure;BME280_temperature;BME280_humidity;BME280_pressure;Samples;Min_cycle;Max_cycle;Signal;HPM_P1;HPM_P2
2021/01/16 00:01:26;;;;;;;2.58;2.08;;;20.50;42.60;;;;;;4951959;29;20489;-65
2021/01/16 00:03:52;;;;;;;3.28;2.42;;;20.50;42.60;;;;;;4953774;28;20031;-67
2021/01/16 00:06:28;;;;;;;3.63;2.72;;;20.50;42.60;;;;;;4953660;28;20114;-67
2021/01/16 00:08:56;;;;;;;3.30;2.35;;;20.50;42.60;;;;;;4973113;28;20030;-66
2021/01/16 00:11:22;;;;;;;2.85;2.40;;;20.50;42.50;;;;;;4955257;28;20100;-62
2021/01/16 00:13:48;;;;;;;3.97;2.63;;;20.50;42.50;;;;;;4952994;28;20061;-66
2021/01/16 00:16:14;;;;;;;6.50;2.95;;;20.50;42.40;;;;;;4962088;28;20043;-67
2021/01/16 00:18:40;;;;;;;2.50;2.20;;;20.50;42.50;;;;;;4966546;28;20235;-67
2021/01/16 00:21:05;;;;;;;2.80;2.28;;;20.50;42.40;;;;;;4954413;28;20488;-67
2021/01/16 00:23:31;;;;;;;3.25;2.55;;;20.50;42.50;;;;;;4959035;29;20035;-66
2021/01/16 00:25:58;;;;;;;2.85;2.22;;;20.50;42.40;;;;;;4959861;28;20443;-67
2021/01/16 00:28:26;;;;;;;3.38;2.70;;;20.50;42.40;;;;;;4959044;28;20019;-62
2021/01/16 00:30:53;;;;;;;2.78;2.05;;;20.50;42.30;;;;;;4963357;28;20032;-66
2021/01/16 00:33:26;;;;;;;4.82;2.42;;;20.60;42.30;;;;;;4959590;29;20023;-67
2021/01/16 00:35:54;;;;;;;3.22;2.25;;;20.50;42.30;;;;;;4959802;28;20088;-67
2021/01/16 00:38:23;;;;;;;3.40;2.20;;;20.50;42.30;;;;;;4978768;28;20380;-68
2021/01/16 00:40:48;;;;;;;2.90;2.47;;;20.50;42.20;;;;;;4964868;28;20086;-67
2021/01/16 00:43:16;;;;;;;4.13;2.13;;;20.50;42.30;;;;;;4971651;28;20481;-67
2021/01/16 00:45:47;;;;;;;2.83;2.20;;;20.50;42.10;;;;;;4958725;28;20034;-67
2021/01/16 00:48:18;;;;;;;3.90;2.65;;;20.50;42.20;;;;;;4961278;28;20065;-66
2021/01/16 00:50:44;;;;;;;2.72;2.38;;;20.50;42.10;;;;;;4961400;28;20030;-65
2021/01/16 00:53:10;;;;;;;4.60;2.20;;;20.60;42.30;;;;;;4959632;28;20428;-65
2021/01/16 00:55:36;;;;;;;3.90;2.75;;;20.60;42.20;;;;;;4957310;28;20075;-67
2021/01/16 00:58:14;;;;;;;3.38;2.42;;;20.60;42.10;;;;;;4959637;28;20374;-66
2021/01/16 01:00:41;;;;;;;3.85;2.53;;;20.60;42.00;;;;;;4961176;28;20046;-66
2021/01/16 01:03:07;;;;;;;4.80;2.35;;;20.60;42.10;;;;;;4959500;28;20048;-65
2021/01/16 01:05:33;;;;;;;3.28;2.42;;;20.50;42.00;;;;;;4958644;29;20428;-66
2021/01/16 01:07:59;;;;;;;2.90;2.35;;;20.60;42.20;;;;;;4975527;28;20035;-66
2021/01/16 01:10:39;;;;;;;3.33;2.90;;;20.60;42.10;;;;;;4970524;28;20420;-61
2021/01/16 01:13:04;;;;;;;3.38;2.38;;;20.60;42.10;;;;;;4959415;28;20038;-66
2021/01/16 01:15:30;;;;;;;3.85;2.40;;;20.60;42.00;;;;;;4957200;29;20040;-67
2021/01/16 01:17:59;;;;;;;2.90;2.40;;;20.60;41.90;;;;;;4974738;28;20050;-67
2021/01/16 01:20:25;;;;;;;4.13;2.38;;;20.60;42.00;;;;;;4967640;28;20058;-62
2021/01/16 01:22:52;;;;;;;3.33;2.40;;;20.60;42.00;;;;;;4958631;28;20395;-67
2021/01/16 01:25:20;;;;;;;4.63;2.60;;;20.50;42.50;;;;;;4959155;28;20349;-66
2021/01/16 01:27:53;;;;;;;3.42;2.33;;;20.60;42.00;;;;;;4972768;28;20219;-66
2021/01/16 01:30:21;;;;;;;3.63;2.58;;;20.60;42.00;;;;;;4969625;28;20035;-65
2021/01/16 01:32:47;;;;;;;3.13;2.50;;;20.60;41.90;;;;;;4962065;28;20031;-66
2021/01/16 01:35:13;;;;;;;2.70;2.20;;;20.60;42.00;;;;;;4953605;28;20477;-67
2021/01/16 01:37:41;;;;;;;3.13;2.47;;;20.60;41.80;;;;;;4980315;28;20477;-66
2021/01/16 01:40:08;;;;;;;3.05;2.50;;;20.60;41.90;;;;;;4955596;28;20078;-66
2021/01/16 01:42:33;;;;;;;2.90;2.38;;;20.60;41.90;;;;;;4965834;28;20030;-66
2021/01/16 01:44:59;;;;;;;2.63;2.30;;;20.60;41.90;;;;;;4969755;28;20493;-66
2021/01/16 01:47:25;;;;;;;2.95;2.38;;;20.60;41.70;;;;;;4955828;29;20031;-61
2021/01/16 01:49:53;;;;;;;2.83;2.30;;;20.60;41.80;;;;;;4954812;28;20093;-65
2021/01/16 01:52:20;;;;;;;3.17;2.35;;;20.60;41.80;;;;;;4955549;28;20034;-64
2021/01/16 01:54:51;;;;;;;2.85;2.17;;;20.60;41.70;;;;;;4956867;28;20039;-65
2021/01/16 01:57:19;;;;;;;3.30;2.65;;;20.60;41.70;;;;;;4960798;28;20484;-63
2021/01/16 01:59:46;;;;;;;2.88;2.33;;;20.60;41.70;;;;;;4959507;28;20014;-63
2021/01/16 02:02:15;;;;;;;3.55;2.60;;;20.60;41.80;;;;;;4955415;28;20074;-64
2021/01/16 02:04:43;;;;;;;3.70;2.47;;;20.60;41.70;;;;;;4953395;28;20524;-64
2021/01/16 02:07:26;;;;;;;3.92;2.20;;;20.60;41.70;;;;;;4958022;28;20030;-64
2021/01/16 02:09:54;;;;;;;3.10;2.50;;;20.60;41.60;;;;;;4959003;28;20031;-64
2021/01/16 02:12:20;;;;;;;3.45;2.28;;;20.60;41.60;;;;;;4955011;28;20031;-65
2021/01/16 02:15:07;;;;;;;3.47;2.35;;;20.60;41.60;;;;;;4956560;28;20127;-63
2021/01/16 02:17:39;;;;;;;3.05;2.60;;;20.60;41.60;;;;;;4971011;28;20094;-63
2021/01/16 02:20:14;;;;;;;;;;;20.60;41.60;;;;;;4975138;28;20154;-62
2021/01/16 02:23:02;;;;;;;3.83;2.40;;;20.60;41.60;;;;;;4971622;28;20297;-63
2021/01/16 02:25:39;;;;;;;2.70;2.00;;;20.60;41.60;;;;;;4956790;28;20035;-62
2021/01/16 02:28:06;;;;;;;2.60;2.10;;;20.60;41.60;;;;;;4967392;28;20484;-62
2021/01/16 02:30:39;;;;;;;3.17;2.40;;;20.60;41.60;;;;;;4958370;28;20468;-63
2021/01/16 02:33:09;;;;;;;2.65;2.10;;;20.60;41.50;;;;;;4954748;28;20031;-62
2021/01/16 02:35:43;;;;;;;2.90;2.40;;;20.60;41.60;;;;;;4966212;28;20035;-62
2021/01/16 02:38:27;;;;;;;3.88;2.80;;;20.60;41.50;;;;;;4965475;28;20037;-62
2021/01/16 02:41:07;;;;;;;3.70;2.67;;;20.60;41.50;;;;;;4959185;28;20030;-62
2021/01/16 02:43:39;;;;;;;4.25;2.75;;;20.60;41.50;;;;;;4953559;28;20023;-61
2021/01/16 02:46:16;;;;;;;;;;;20.60;41.40;;;;;;4962617;28;20030;-62
2021/01/16 02:49:09;;;;;;;2.75;2.20;;;20.60;41.40;;;;;;4972740;28;19917;-62
2021/01/16 02:51:46;;;;;;;3.20;2.30;;;20.60;41.50;;;;;;4966406;28;20114;-62
2021/01/16 02:54:12;;;;;;;3.05;2.40;;;20.60;41.40;;;;;;4961120;28;20086;-62
2021/01/16 02:56:39;;;;;;;2.90;2.25;;;20.60;41.40;;;;;;4973085;28;20027;-62
2021/01/16 02:59:05;;;;;;;3.50;3.08;;;20.60;41.30;;;;;;4973747;28;20038;-62
2021/01/16 03:01:37;;;;;;;3.17;2.53;;;20.60;41.30;;;;;;4969106;28;20086;-61
2021/01/16 03:04:03;;;;;;;2.77;2.47;;;20.60;41.40;;;;;;4971469;28;20058;-61
2021/01/16 03:06:29;;;;;;;3.22;2.70;;;20.60;41.40;;;;;;4971230;28;20042;-60
2021/01/16 03:08:56;;;;;;;4.03;2.70;;;20.60;41.30;;;;;;4954460;29;20385;-61
2021/01/16 03:11:24;;;;;;;3.25;2.75;;;20.60;41.30;;;;;;4954488;28;20054;-61
2021/01/16 03:13:50;;;;;;;4.25;2.63;;;20.60;41.30;;;;;;4954652;28;20039;-61
2021/01/16 03:16:27;;;;;;;3.45;2.58;;;20.60;41.30;;;;;;4961311;28;20035;-62
2021/01/16 03:18:56;;;;;;;3.08;2.17;;;20.60;41.30;;;;;;4962521;28;20038;-62
2021/01/16 03:21:22;;;;;;;2.55;2.10;;;20.60;41.30;;;;;;4973215;28;20058;-61
2021/01/16 03:23:48;;;;;;;2.80;2.50;;;20.60;41.30;;;;;;4969936;28;20593;-61
2021/01/16 03:26:13;;;;;;;4.05;2.88;;;20.60;41.30;;;;;;4952851;28;20050;-61
2021/01/16 03:28:39;;;;;;;3.42;2.58;;;20.60;41.30;;;;;;4959079;28;20026;-61
2021/01/16 03:31:05;;;;;;;4.40;2.47;;;20.60;41.20;;;;;;4957605;28;20023;-61
2021/01/16 03:33:30;;;;;;;2.88;2.40;;;20.60;41.30;;;;;;4972131;28;20102;-60
2021/01/16 03:35:56;;;;;;;2.40;2.13;;;20.60;41.20;;;;;;4953552;29;20040;-61
2021/01/16 03:38:22;;;;;;;3.28;2.42;;;20.60;41.20;;;;;;4954174;29;20053;-61
2021/01/16 03:40:47;;;;;;;3.20;2.60;;;20.60;41.20;;;;;;4953776;28;20095;-61
2021/01/16 03:43:14;;;;;;;3.10;2.60;;;20.60;41.20;;;;;;4954525;29;20478;-61
2021/01/16 03:45:39;;;;;;;2.67;2.17;;;20.60;41.10;;;;;;4952418;28;20031;-61
2021/01/16 03:48:06;;;;;;;2.88;2.17;;;20.60;41.20;;;;;;4953235;29;20053;-60
2021/01/16 03:50:32;;;;;;;3.65;2.70;;;20.60;41.10;;;;;;4953239;28;20035;-61
2021/01/16 03:52:58;;;;;;;3.08;2.70;;;20.60;41.10;;;;;;4962960;28;20037;-60
2021/01/16 03:55:24;;;;;;;3.10;2.22;;;20.60;41.10;;;;;;4965458;28;20122;-61
2021/01/16 03:57:49;;;;;;;3.45;2.78;;;20.70;41.20;;;;;;4953179;29;20891;-61
2021/01/16 04:00:15;;;;;;;3.85;3.10;;;20.60;41.10;;;;;;4954575;28;20204;-60
2021/01/16 04:02:41;;;;;;;3.42;2.50;;;20.60;41.10;;;;;;4964547;28;20023;-60
2021/01/16 04:05:08;;;;;;;3.05;2.65;;;20.60;41.10;;;;;;4961967;28;20035;-61
2021/01/16 04:07:33;;;;;;;4.00;2.20;;;20.60;41.70;;;;;;4952570;28;20388;-61
2021/01/16 04:10:00;;;;;;;4.05;2.90;;;20.60;41.00;;;;;;4965432;28;20050;-61
2021/01/16 04:12:28;;;;;;;2.45;2.22;;;20.60;41.00;;;;;;4953737;28;20035;-61
2021/01/16 04:14:54;;;;;;;2.97;2.50;;;20.60;41.10;;;;;;4952493;28;20123;-60
2021/01/16 04:17:20;;;;;;;3.58;2.70;;;20.60;41.10;;;;;;4953015;28;20035;-60
2021/01/16 04:19:46;;;;;;;3.88;2.47;;;20.60;41.10;;;;;;4952326;28;20524;-61
2021/01/16 04:22:12;;;;;;;3.72;2.40;;;20.60;41.10;;;;;;4952846;29;20126;-61
2021/01/16 04:24:37;;;;;;;2.92;2.60;;;20.60;41.00;;;;;;4966351;28;20027;-61
2021/01/16 04:27:03;;;;;;;2.60;2.40;;;20.60;41.00;;;;;;4970573;28;20027;-62
2021/01/16 04:29:29;;;;;;;3.60;2.47;;;20.70;41.00;;;;;;4964921;28;20027;-60
2021/01/16 04:31:54;;;;;;;2.67;2.25;;;20.70;41.00;;;;;;4963126;28;20070;-60
2021/01/16 04:34:20;;;;;;;3.63;2.60;;;20.60;41.00;;;;;;4961417;28;20058;-61
2021/01/16 04:36:46;;;;;;;3.83;2.88;;;20.70;41.10;;;;;;4956583;28;20094;-60
2021/01/16 04:39:11;;;;;;;3.72;2.72;;;20.60;41.00;;;;;;4954318;28;20039;-61
2021/01/16 04:41:38;;;;;;;3.30;2.60;;;20.70;41.10;;;;;;4951888;28;20034;-61
2021/01/16 04:44:04;;;;;;;3.20;2.53;;;20.70;41.10;;;;;;4956278;28;20027;-60
2021/01/16 04:46:31;;;;;;;3.65;2.95;;;20.60;41.00;;;;;;4971424;28;20039;-60
2021/01/16 04:49:06;;;;;;;4.03;2.40;;;20.70;41.10;;;;;;4972312;28;20031;-61
2021/01/16 04:51:36;;;;;;;3.38;2.42;;;20.70;41.00;;;;;;4951626;28;20031;-60
2021/01/16 04:54:03;;;;;;;3.08;2.65;;;20.70;41.00;;;;;;4957740;28;20493;-61
2021/01/16 04:56:35;;;;;;;2.92;2.30;;;20.60;41.00;;;;;;4971776;28;20045;-60
2021/01/16 04:59:01;;;;;;;4.47;3.13;;;20.60;41.00;;;;;;4972149;28;20543;-61
2021/01/16 05:01:30;;;;;;;3.28;2.75;;;20.60;41.00;;;;;;4954309;28;20071;-61
2021/01/16 05:03:57;;;;;;;2.97;2.35;;;20.60;41.00;;;;;;4953505;28;20047;-60
2021/01/16 05:06:26;;;;;;;2.80;2.50;;;20.60;41.00;;;;;;4959675;28;20043;-61
2021/01/16 05:08:54;;;;;;;3.15;2.72;;;20.60;41.00;;;;;;4955902;28;20031;-61
2021/01/16 05:11:25;;;;;;;3.10;2.47;;;20.60;40.90;;;;;;4959366;28;20357;-61
2021/01/16 05:14:09;;;;;;;3.58;2.58;;;20.70;41.00;;;;;;4955930;28;20054;-61
2021/01/16 05:16:56;;;;;;;3.38;2.60;;;20.60;40.80;;;;;;4943165;29;20031;-60
2021/01/16 05:19:28;;;;;;;2.80;2.30;;;20.60;40.90;;;;;;4955864;28;20043;-61
2021/01/16 05:21:55;;;;;;;2.60;2.30;;;20.60;40.90;;;;;;4955265;28;20497;-61
2021/01/16 05:24:21;;;;;;;3.03;2.58;;;20.60;40.80;;;;;;4959002;28;20432;-61
2021/01/16 05:27:07;;;;;;;3.42;2.60;;;20.60;40.80;;;;;;4968446;28;20046;-61
2021/01/16 05:29:35;;;;;;;3.40;2.75;;;20.70;40.90;;;;;;4955201;28;20027;-60
2021/01/16 05:32:03;;;;;;;2.90;2.50;;;20.70;40.90;;;;;;4956292;28;20031;-61
2021/01/16 05:34:30;;;;;;;2.97;2.22;;;20.70;40.80;;;;;;4956153;28;20081;-61
2021/01/16 05:36:58;;;;;;;2.88;2.45;;;20.60;40.80;;;;;;4956833;28;20047;-60
2021/01/16 05:39:26;;;;;;;3.22;2.40;;;20.70;40.80;;;;;;4957808;28;20031;-60
2021/01/16 05:41:57;;;;;;;3.83;2.80;;;20.70;41.50;;;;;;4955499;28;20092;-60
2021/01/16 05:44:24;;;;;;;2.75;2.50;;;20.70;40.80;;;;;;4959047;28;20030;-60
2021/01/16 05:46:52;;;;;;;3.55;2.70;;;20.70;40.80;;;;;;4965582;28;20031;-59
2021/01/16 05:49:24;;;;;;;2.60;2.20;;;20.70;40.80;;;;;;4968845;28;20035;-60
2021/01/16 05:51:50;;;;;;;3.70;2.60;;;20.70;40.80;;;;;;4972420;28;20030;-60
2021/01/16 05:54:17;;;;;;;3.53;2.70;;;20.70;40.80;;;;;;4965441;28;20035;-60
2021/01/16 05:56:43;;;;;;;3.75;2.90;;;20.70;40.70;;;;;;4954959;28;20088;-59
2021/01/16 05:59:11;;;;;;;3.20;2.38;;;20.70;40.80;;;;;;4955194;28;20031;-59
2021/01/16 06:01:39;;;;;;;3.20;2.80;;;20.70;40.80;;;;;;4954919;28;20030;-59
2021/01/16 06:04:05;;;;;;;2.42;2.20;;;20.60;40.80;;;;;;4968780;28;20029;-59
2021/01/16 06:06:35;;;;;;;3.38;2.80;;;20.70;40.80;;;;;;4955609;28;20023;-59
2021/01/16 06:09:01;;;;;;;3.33;2.75;;;20.60;40.70;;;;;;4957180;28;20512;-59
2021/01/16 06:11:37;;;;;;;4.05;2.70;;;20.70;40.80;;;;;;4972172;28;20054;-58
2021/01/16 06:14:05;;;;;;;3.67;2.47;;;20.60;40.70;;;;;;4954322;28;20035;-58
2021/01/16 06:16:53;;;;;;;2.60;2.20;;;20.60;40.70;;;;;;4970391;28;20035;-58
2021/01/16 06:19:26;;;;;;;2.95;2.50;;;20.70;40.80;;;;;;4967757;28;20049;-59
2021/01/16 06:21:53;;;;;;;3.83;2.85;;;20.60;40.70;;;;;;4958649;28;20768;-58
2021/01/16 06:24:24;;;;;;;4.40;2.20;;;20.70;40.80;;;;;;4954767;28;20027;-58
2021/01/16 06:27:00;;;;;;;3.20;2.70;;;20.60;40.60;;;;;;4954466;28;20035;-58
2021/01/16 06:29:32;;;;;;;2.95;2.42;;;20.70;40.70;;;;;;4954399;28;20475;-58
2021/01/16 06:32:02;;;;;;;3.30;2.63;;;20.60;40.70;;;;;;4958896;28;20027;-58
2021/01/16 06:34:30;;;;;;;3.70;2.75;;;20.60;40.70;;;;;;4974331;28;20082;-58
2021/01/16 06:37:16;;;;;;;3.53;2.80;;;20.60;40.70;;;;;;4966526;28;20114;-58
2021/01/16 06:39:47;;;;;;;2.67;2.40;;;20.60;40.60;;;;;;4954112;28;20027;-58
2021/01/16 06:42:21;;;;;;;3.78;2.70;;;20.60;40.60;;;;;;4962162;28;20041;-58
2021/01/16 06:44:47;;;;;;;2.80;2.35;;;20.70;40.70;;;;;;4972326;28;20023;-58
2021/01/16 06:47:13;;;;;;;2.95;2.47;;;20.60;40.60;;;;;;4971224;28;20031;-58
2021/01/16 06:49:39;;;;;;;2.60;2.40;;;20.60;40.50;;;;;;4962209;28;20037;-59
2021/01/16 06:52:06;;;;;;;4.18;3.08;;;20.70;40.70;;;;;;4973823;28;20108;-58
2021/01/16 06:54:36;;;;;;;2.95;2.60;;;20.70;40.60;;;;;;4973901;28;20026;-58
2021/01/16 06:57:12;;;;;;;3.20;2.47;;;20.70;40.60;;;;;;4970082;28;20045;-58
2021/01/16 06:59:43;;;;;;;3.33;2.90;;;20.60;40.60;;;;;;4953081;28;20070;-59
2021/01/16 07:02:23;;;;;;;3.88;2.85;;;20.60;40.60;;;;;;4968759;28;20043;-58
2021/01/16 07:05:06;;;;;;;3.92;3.08;;;20.70;40.70;;;;;;4973019;28;20031;-58
2021/01/16 07:07:37;;;;;;;3.47;2.80;;;20.60;40.60;;;;;;4966884;28;20038;-58
2021/01/16 07:10:04;;;;;;;3.13;2.53;;;20.70;40.60;;;;;;4964054;28;20130;-58
2021/01/16 07:12:30;;;;;;;3.38;2.70;;;20.70;40.60;;;;;;4966794;28;20435;-58
2021/01/16 07:14:56;;;;;;;3.00;2.30;;;20.60;40.50;;;;;;4952563;28;20130;-59
2021/01/16 07:17:26;;;;;;;5.15;2.92;;;20.70;40.60;;;;;;4954837;28;20034;-58
2021/01/16 07:19:55;;;;;;;3.33;2.80;;;20.70;40.60;;;;;;4950020;29;20137;-59
2021/01/16 07:22:34;;;;;;;3.40;2.42;;;20.70;40.50;;;;;;4952738;28;20183;-58
2021/01/16 07:25:01;;;;;;;2.97;2.58;;;20.70;40.50;;;;;;4951320;28;20035;-58
2021/01/16 07:27:28;;;;;;;4.15;2.90;;;20.70;40.50;;;;;;4954156;28;20134;-59
2021/01/16 07:29:58;;;;;;;3.58;2.58;;;20.70;40.40;;;;;;4951137;28;20038;-58
2021/01/16 07:32:38;;;;;;;3.45;2.88;;;20.70;40.50;;;;;;4951932;28;20019;-59
2021/01/16 07:35:07;;;;;;;4.65;3.20;;;20.70;40.40;;;;;;4952278;28;20035;-59
2021/01/16 07:37:33;;;;;;;3.47;2.67;;;20.70;40.50;;;;;;4952470;28;20042;-59
2021/01/16 07:39:59;;;;;;;4.50;3.13;;;20.60;40.40;;;;;;4953741;28;20034;-59
2021/01/16 07:42:27;;;;;;;3.08;2.70;;;20.70;40.40;;;;;;4952096;28;20035;-60
2021/01/16 07:45:19;;;;;;;7.75;2.75;;;20.70;40.40;;;;;;4951974;28;20042;-59
2021/01/16 07:47:52;;;;;;;4.85;2.67;;;20.70;40.50;;;;;;4936335;28;20043;-59
2021/01/16 07:50:27;;;;;;;3.30;2.40;;;20.70;40.50;;;;;;4950856;29;20474;-59
2021/01/16 07:53:03;;;;;;;3.83;3.13;;;20.70;40.40;;;;;;4949645;29;20035;-60
2021/01/16 07:55:34;;;;;;;3.60;2.70;;;20.70;40.30;;;;;;4951043;28;20038;-60
2021/01/16 07:58:19;;;;;;;3.00;2.70;;;20.70;40.40;;;;;;4951211;28;20031;-61
2021/01/16 08:01:07;;;;;;;3.80;2.65;;;20.70;40.40;;;;;;4951621;29;20031;-59
2021/01/16 08:03:55;;;;;;;3.60;2.95;;;20.70;40.30;;;;;;4934130;29;20028;-58
2021/01/16 08:06:27;;;;;;;3.95;2.42;;;20.70;40.40;;;;;;4941286;29;20428;-57
2021/01/16 08:08:53;;;;;;;;;;;20.70;40.40;;;;;;4953814;28;20027;-59
2021/01/16 08:11:36;;;;;;;3.83;2.63;;;20.80;40.30;;;;;;4971029;28;19913;-59
2021/01/16 08:14:04;;;;;;;4.28;2.90;;;20.80;40.50;;;;;;4970489;28;20035;-54
2021/01/16 08:16:30;;;;;;;5.13;3.13;;;20.90;40.30;;;;;;4950645;28;20035;-59
2021/01/16 08:19:24;;;;;;;8.25;2.90;;;20.90;40.10;;;;;;4952650;28;20811;-59
2021/01/16 08:21:56;;;;;;;3.97;2.90;;;20.90;40.10;;;;;;4952039;28;20501;-58
2021/01/16 08:24:25;;;;;;;;;;;21.00;40.10;;;;;;4951176;29;20038;-58
2021/01/16 08:26:58;;;;;;;3.33;2.50;;;21.00;39.90;;;;;;4951339;28;19950;-58
2021/01/16 08:29:25;;;;;;;4.10;2.72;;;21.10;40.00;;;;;;4951778;28;20023;-59
2021/01/16 08:32:11;;;;;;;2.92;2.50;;;21.10;39.80;;;;;;4948506;28;20389;-58
2021/01/16 08:34:59;;;;;;;6.47;3.08;;;21.10;39.80;;;;;;4949831;29;20030;-56
2021/01/16 08:37:35;;;;;;;3.20;2.60;;;21.20;39.80;;;;;;4951796;28;20515;-58
2021/01/16 08:40:05;;;;;;;3.03;2.45;;;21.10;39.80;;;;;;4951335;28;20031;-59
2021/01/16 08:42:31;;;;;;;3.10;2.53;;;21.10;40.00;;;;;;4984264;28;20035;-57
2021/01/16 08:44:58;;;;;;;3.97;3.13;;;21.10;39.90;;;;;;4954917;28;20449;-59
2021/01/16 08:47:24;;;;;;;4.28;2.83;;;21.20;39.90;;;;;;4955546;28;20093;-59
2021/01/16 08:49:51;;;;;;;4.30;2.85;;;21.20;40.00;;;;;;4954367;28;20031;-59
2021/01/16 08:52:34;;;;;;;4.20;2.85;;;21.20;39.90;;;;;;4974153;28;20492;-58
2021/01/16 08:55:02;;;;;;;3.08;2.58;;;21.30;39.90;;;;;;4973945;28;20035;-58
2021/01/16 08:57:30;;;;;;;6.35;2.90;;;21.30;39.90;;;;;;4975768;28;20130;-57
2021/01/16 09:00:12;;;;;;;4.95;3.25;;;21.30;40.90;;;;;;4960490;28;20086;-58
2021/01/16 09:02:38;;;;;;;10.27;3.05;;;21.40;41.70;;;;;;4955325;28;20030;-56
2021/01/16 09:05:24;;;;;;;10.85;3.35;;;21.30;41.80;;;;;;4955853;29;20121;-53
2021/01/16 09:07:51;;;;;;;5.45;2.75;;;21.40;41.70;;;;;;4970100;28;20045;-53
2021/01/16 09:10:24;;;;;;;11.38;3.30;;;21.40;41.80;;;;;;4959314;28;20499;-53
2021/01/16 09:12:52;;;;;;;10.32;3.00;;;21.40;42.20;;;;;;4955981;28;20027;-43
2021/01/16 09:15:39;;;;;;;15.60;7.22;;;21.60;41.80;;;;;;4956383;28;20031;-47
2021/01/16 09:18:13;;;;;;;7.95;4.10;;;21.00;36.30;;;;;;4957260;28;20039;-53
2021/01/16 09:20:43;;;;;;;11.68;4.18;;;21.20;40.10;;;;;;4955627;28;20114;-50
2021/01/16 09:23:21;;;;;;;5.32;3.38;;;21.40;40.50;;;;;;4955680;28;20465;-44
2021/01/16 09:25:48;;;;;;;8.88;3.17;;;21.50;40.50;;;;;;4959363;28;20027;-47
2021/01/16 09:28:14;;;;;;;4.07;3.13;;;21.50;40.50;;;;;;4972828;28;20468;-45
2021/01/16 09:30:40;;;;;;;6.45;3.30;;;21.50;41.10;;;;;;4956737;28;20090;-49
2021/01/16 09:33:25;;;;;;;7.35;3.42;;;21.40;41.50;;;;;;4955947;29;20078;-48
2021/01/16 09:35:52;;;;;;;5.30;2.90;;;21.50;41.60;;;;;;4956344;28;20032;-46
2021/01/16 09:38:22;;;;;;;7.03;2.70;;;21.50;41.50;;;;;;4972858;28;20392;-46
2021/01/16 09:40:49;;;;;;;4.93;2.70;;;21.50;41.60;;;;;;4955674;28;20070;-45
2021/01/16 09:43:20;;;;;;;6.15;2.97;;;21.40;41.80;;;;;;4955869;28;20028;-47
2021/01/16 09:45:56;;;;;;;7.82;4.25;;;21.40;41.80;;;;;;4955048;28;20038;-48
2021/01/16 09:48:31;;;;;;;9.75;5.57;;;21.30;39.20;;;;;;4972099;28;20449;-49
2021/01/16 09:51:02;;;;;;;13.13;7.68;;;21.20;37.50;;;;;;4954840;29;20070;-46
2021/01/16 09:53:29;;;;;;;17.92;6.00;;;21.10;35.70;;;;;;4955231;28;20049;-47
2021/01/16 09:55:55;;;;;;;7.07;3.85;;;21.10;37.30;;;;;;4973258;28;20805;-48
2021/01/16 09:58:40;;;;;;;12.27;3.97;;;21.20;39.90;;;;;;4958972;28;20063;-49
2021/01/16 10:01:38;;;;;;;8.15;3.55;;;21.20;40.50;;;;;;4954651;29;20038;-48
2021/01/16 10:04:18;;;;;;;6.32;3.22;;;21.20;40.80;;;;;;4943821;28;20155;-47
2021/01/16 10:06:46;;;;;;;9.55;3.63;;;21.20;41.10;;;;;;4958718;28;20523;-49
2021/01/16 10:09:21;;;;;;;11.65;3.53;;;21.30;41.00;;;;;;4968028;28;20038;-45
2021/01/16 10:11:48;;;;;;;7.63;3.20;;;21.20;41.20;;;;;;4965633;28;20026;-45
2021/01/16 10:14:16;;;;;;;7.85;2.90;;;21.30;41.20;;;;;;4975132;28;20023;-47
2021/01/16 10:16:44;;;;;;;9.52;3.15;;;21.30;41.30;;;;;;4969672;28;20480;-49
2021/01/16 10:19:13;;;;;;;13.02;3.33;;;21.40;41.50;;;;;;4953922;28;20047;-44
2021/01/16 10:21:52;;;;;;;9.13;2.90;;;21.40;41.40;;;;;;4954572;28;20064;-53
2021/01/16 10:24:19;;;;;;;20.30;4.35;;;21.40;41.60;;;;;;4966674;28;20154;-43
2021/01/16 10:26:50;;;;;;;11.77;3.80;;;21.40;41.60;;;;;;4969089;28;20070;-47
2021/01/16 10:29:29;;;;;;;11.30;3.85;;;21.40;41.60;;;;;;4954983;28;20135;-45
2021/01/16 10:32:22;;;;;;;16.48;4.32;;;21.40;41.80;;;;;;4954372;28;20019;-53
2021/01/16 10:34:49;;;;;;;9.07;2.67;;;21.50;41.90;;;;;;4956976;28;20114;-49
2021/01/16 10:37:17;;;;;;;7.32;2.70;;;21.40;41.90;;;;;;4955618;28;20046;-46
2021/01/16 10:39:50;;;;;;;13.90;3.05;;;21.40;42.10;;;;;;4953972;28;20027;-49
2021/01/16 10:42:18;;;;;;;12.50;3.08;;;21.40;42.10;;;;;;4955390;28;20031;-48
2021/01/16 10:44:45;;;;;;;9.18;3.65;;;21.30;41.50;;;;;;4953773;28;20413;-48
2021/01/16 10:47:34;;;;;;;8.32;3.85;;;21.30;39.60;;;;;;4955650;28;20035;-48
2021/01/16 10:50:10;;;;;;;8.73;3.65;;;21.00;39.70;;;;;;4966213;28;20078;-47
2021/01/16 10:52:37;;;;;;;6.80;3.70;;;20.90;39.90;;;;;;4967408;28;20027;-48
2021/01/16 10:55:08;;;;;;;4.88;3.40;;;20.90;39.10;;;;;;4965568;28;20170;-46
2021/01/16 10:57:44;;;;;;;10.57;3.83;;;21.00;38.70;;;;;;4963586;28;20630;-48
2021/01/16 11:00:12;;;;;;;6.35;3.55;;;21.00;38.60;;;;;;4967954;28;20113;-47
2021/01/16 11:02:41;;;;;;;4.93;3.53;;;21.00;39.30;;;;;;4966918;28;20114;-47
2021/01/16 11:05:34;;;;;;;8.90;4.00;;;21.00;39.80;;;;;;4953474;28;20035;-48
2021/01/16 11:08:10;;;;;;;10.95;4.18;;;21.00;39.80;;;;;;4951212;28;20050;-46
2021/01/16 11:10:36;;;;;;;6.93;3.40;;;21.00;40.00;;;;;;4954561;28;20031;-46
2021/01/16 11:13:28;;;;;;;8.70;3.42;;;21.00;40.10;;;;;;4961775;28;20031;-46
2021/01/16 11:16:15;;;;;;;8.48;4.32;;;21.00;40.30;;;;;;4960466;28;20058;-48
2021/01/16 11:18:41;;;;;;;10.27;4.70;;;20.80;38.00;;;;;;4970627;28;20062;-50
2021/01/16 11:21:09;;;;;;;9.95;4.22;;;20.70;39.00;;;;;;4972993;28;20082;-48
2021/01/16 11:23:44;;;;;;;9.48;3.85;;;20.90;39.80;;;;;;4958568;28;20035;-50
2021/01/16 11:26:11;;;;;;;15.57;3.72;;;21.00;40.00;;;;;;4954588;28;20035;-44
2021/01/16 11:28:53;;;;;;;6.47;3.47;;;21.10;40.10;;;;;;4953738;28;20094;-47
2021/01/16 11:31:31;;;;;;;7.82;3.35;;;21.10;40.20;;;;;;4966391;28;20066;-48
2021/01/16 11:34:08;;;;;;;6.80;3.42;;;21.20;40.60;;;;;;4953452;28;20031;-46
2021/01/16 11:36:58;;;;;;;17.60;3.40;;;21.20;40.60;;;;;;4957648;28;20480;-46
2021/01/16 11:39:47;;;;;;;13.70;3.38;;;21.30;40.80;;;;;;4954203;28;20035;-48
2021/01/16 11:42:13;;;;;;;8.13;3.22;;;21.40;40.70;;;;;;4953842;28;20464;-52
2021/01/16 11:44:58;;;;;;;14.68;3.67;;;21.30;40.80;;;;;;4953307;28;20052;-49
2021/01/16 11:47:26;;;;;;;13.40;3.85;;;21.30;41.50;;;;;;4953043;28;20023;-51
2021/01/16 11:49:52;;;;;;;17.00;3.70;;;21.40;41.20;;;;;;4952763;28;20058;-45
2021/01/16 11:52:18;;;;;;;22.63;5.32;;;21.40;41.30;;;;;;4953330;28;20110;-47
2021/01/16 11:54:44;;;;;;;21.80;3.72;;;21.40;41.30;;;;;;4955954;28;20114;-47
2021/01/16 11:57:11;;;;;;;14.27;3.83;;;21.50;41.20;;;;;;4953129;28;20505;-47
2021/01/16 11:59:40;;;;;;;10.23;3.13;;;21.50;41.10;;;;;;4965800;28;20431;-45
2021/01/16 12:02:13;;;;;;;18.20;3.65;;;21.50;41.20;;;;;;4971322;28;20097;-44
2021/01/16 12:04:44;;;;;;;9.38;3.10;;;21.50;41.40;;;;;;4971611;28;20031;-42
2021/01/16 12:07:13;;;;;;;8.80;3.40;;;21.50;41.40;;;;;;4954881;28;20042;-50
2021/01/16 12:09:42;;;;;;;11.35;3.45;;;21.50;41.30;;;;;;4951505;28;20027;-52
2021/01/16 12:12:09;;;;;;;15.25;3.20;;;21.50;41.60;;;;;;4953114;28;20512;-46
2021/01/16 12:14:36;;;;;;;14.35;2.95;;;21.50;41.30;;;;;;4953530;28;20077;-44
2021/01/16 12:17:12;;;;;;;10.15;2.92;;;21.50;41.50;;;;;;4953682;28;20039;-44
2021/01/16 12:19:39;;;;;;;8.63;3.25;;;21.40;41.50;;;;;;4953732;28;20071;-43
2021/01/16 12:22:07;;;;;;;9.55;3.67;;;21.50;41.50;;;;;;4959360;28;20186;-50
2021/01/16 12:24:33;;;;;;;13.57;3.60;;;21.60;41.50;;;;;;4958915;28;20031;-47
2021/01/16 12:27:01;;;;;;;15.88;3.97;;;21.60;41.50;;;;;;4952645;28;20361;-50
2021/01/16 12:29:44;;;;;;;13.90;3.38;;;21.50;41.50;;;;;;4962041;28;20486;-48
2021/01/16 12:32:12;;;;;;;10.98;3.58;;;21.50;41.70;;;;;;4964520;28;20035;-49
2021/01/16 12:34:52;;;;;;;21.70;3.50;;;21.50;41.90;;;;;;4953802;28;20392;-46
2021/01/16 12:37:29;;;;;;;11.70;4.32;;;21.40;41.90;;;;;;4952864;28;20488;-48
2021/01/16 12:39:56;;;;;;;17.27;3.15;;;21.50;41.70;;;;;;4953043;28;20023;-46
2021/01/16 12:42:22;;;;;;;6.35;3.15;;;21.40;41.80;;;;;;4952785;28;20384;-45
2021/01/16 12:44:48;;;;;;;14.60;3.10;;;21.40;41.90;;;;;;4951079;29;20036;-45
2021/01/16 12:47:19;;;;;;;19.83;4.75;;;21.40;41.90;;;;;;4953557;28;20087;-47
2021/01/16 12:49:52;;;;;;;11.85;3.40;;;21.40;42.00;;;;;;4952183;28;20058;-47
2021/01/16 12:52:26;;;;;;;14.43;3.40;;;21.30;41.80;;;;;;4953345;28;20047;-45
2021/01/16 12:55:01;;;;;;;12.50;3.20;;;21.30;42.00;;;;;;4951945;28;20115;-49
2021/01/16 12:57:52;;;;;;;9.70;3.60;;;21.20;42.10;;;;;;4953153;29;20039;-46
2021/01/16 13:00:26;;;;;;;10.32;3.90;;;21.20;42.00;;;;;;4946566;28;20448;-50
2021/01/16 13:03:06;;;;;;;6.60;4.93;;;21.20;42.40;;;;;;4947697;28;20504;-47
2021/01/16 13:05:34;;;;;;;11.65;5.35;;;20.80;37.90;;;;;;4952425;28;20077;-48